Time;durP1;ratioP1;P1;durP2;ratioP2;P2;SDS_P1;SDS_P2;PMS_P1;PMS_P2;Temp;Humidity;BMP_temperature;BMP_pressure;BME280_temperature;BME280_humidity;BME280_pressure;Samples;Min_cycle;Max_cycle;Signal;HPM_P1;HPM_P2
2022/07/03 00:00:18;;;;;;;3.60;1.30;;;17.10;99.90;;;;;;4993613;28;20113;-62
2022/07/03 00:02:44;;;;;;;2.85;1.60;;;17.00;99.90;;;;;;4991924;28;20085;-62
2022/07/03 00:05:09;;;;;;;5.00;1.88;;;17.00;99.90;;;;;;4993254;28;20050;-62
2022/07/03 00:07:38;;;;;;;3.33;1.88;;;16.60;99.90;;;;;;4992205;28;20125;-62
2022/07/03 00:10:04;;;;;;;6.47;1.92;;;16.90;99.90;;;;;;5001951;28;20066;-62
2022/07/03 00:12:29;;;;;;;6.85;1.75;;;16.90;99.90;;;;;;5010984;28;20472;-64
2022/07/03 00:14:55;;;;;;;3.88;2.13;;;16.90;99.90;;;;;;4992250;28;20053;-62
2022/07/03 00:17:21;;;;;;;3.17;2.10;;;16.70;99.90;;;;;;5016889;28;20046;-62
2022/07/03 00:19:46;;;;;;;2.72;1.60;;;18.00;99.90;;;;;;5018775;28;20038;-62
2022/07/03 00:22:13;;;;;;;4.38;2.58;;;16.80;99.90;;;;;;5025902;28;20046;-62
2022/07/03 00:24:51;;;;;;;7.18;3.20;;;16.80;99.90;;;;;;5019547;28;20468;-63
2022/07/03 00:27:20;;;;;;;3.78;2.35;;;16.80;99.90;;;;;;4991717;28;20102;-62
2022/07/03 00:29:49;;;;;;;6.70;3.35;;;17.50;99.90;;;;;;4995407;28;20099;-62
2022/07/03 00:32:21;;;;;;;4.43;2.33;;;16.60;99.90;;;;;;5013668;28;20126;-63
2022/07/03 00:34:49;;;;;;;4.15;2.13;;;16.60;99.90;;;;;;4991649;28;20051;-62
2022/07/03 00:37:14;;;;;;;3.20;2.15;;;16.30;99.90;;;;;;4991971;28;20034;-62
2022/07/03 00:39:42;;;;;;;3.30;2.20;;;18.10;99.90;;;;;;5020505;28;20503;-62
2022/07/03 00:42:08;;;;;;;3.88;2.55;;;16.40;99.90;;;;;;4993209;28;20408;-62
2022/07/03 00:44:56;;;;;;;7.85;2.75;;;16.40;99.90;;;;;;4997396;28;20078;-62
2022/07/03 00:47:23;;;;;;;5.70;2.90;;;16.60;99.90;;;;;;4996960;28;20049;-62
2022/07/03 00:49:52;;;;;;;6.00;2.90;;;16.30;99.90;;;;;;4984853;28;20096;-62
2022/07/03 00:52:20;;;;;;;8.23;2.50;;;17.80;99.90;;;;;;4997045;28;20046;-62
2022/07/03 00:54:57;;;;;;;3.40;2.50;;;16.30;99.90;;;;;;4996921;28;20568;-62
2022/07/03 00:57:25;;;;;;;3.80;2.45;;;16.10;99.90;;;;;;5009195;28;20136;-62
2022/07/03 00:59:51;;;;;;;4.45;2.53;;;17.80;99.90;;;;;;4996945;28;20129;-62
2022/07/03 01:02:45;;;;;;;2.70;2.03;;;16.00;99.90;;;;;;4995275;28;20046;-62
2022/07/03 01:05:21;;;;;;;2.65;2.42;;;16.10;99.90;;;;;;5009391;28;20042;-62
2022/07/03 01:08:10;;;;;;;2.38;2.17;;;16.20;99.90;;;;;;5002762;28;20050;-62
2022/07/03 01:10:58;;;;;;;5.72;3.00;;;16.20;99.90;;;;;;5003206;28;20046;-62
2022/07/03 01:13:33;;;;;;;3.40;2.22;;;16.50;99.90;;;;;;5008875;28;20048;-63
2022/07/03 01:16:02;;;;;;;;;;;16.40;99.90;;;;;;5029306;28;20037;-63
2022/07/03 01:18:48;;;;;;;3.80;2.70;;;16.40;99.90;;;;;;5003260;28;19932;-63
2022/07/03 01:21:34;;;;;;;4.10;2.45;;;16.40;99.90;;;;;;5002501;28;20104;-63
2022/07/03 01:24:14;;;;;;;3.65;2.53;;;16.60;99.90;;;;;;5015413;28;20034;-63
2022/07/03 01:26:45;;;;;;;7.40;2.83;;;16.40;99.90;;;;;;5016342;28;20065;-63
2022/07/03 01:29:22;;;;;;;3.22;2.35;;;16.00;99.90;;;;;;5028479;28;20041;-63
2022/07/03 01:31:50;;;;;;;2.72;1.75;;;16.00;99.90;;;;;;5039835;28;20097;-63
2022/07/03 01:34:18;;;;;;;3.65;2.00;;;16.20;99.90;;;;;;4998813;28;20117;-63
2022/07/03 01:36:47;;;;;;;2.45;2.17;;;15.80;99.90;;;;;;4996427;28;20070;-63
2022/07/03 01:39:16;;;;;;;4.05;1.92;;;15.80;99.90;;;;;;5005710;28;20125;-64
2022/07/03 01:41:45;;;;;;;4.65;2.08;;;15.60;99.90;;;;;;5028591;28;20046;-63
2022/07/03 01:44:13;;;;;;;4.15;3.20;;;15.60;99.90;;;;;;5006569;28;20107;-64
2022/07/03 01:46:42;;;;;;;3.88;2.72;;;15.30;99.90;;;;;;5004989;28;20121;-62
2022/07/03 01:49:10;;;;;;;3.40;2.97;;;15.90;99.90;;;;;;4996334;28;20038;-62
2022/07/03 01:51:39;;;;;;;8.00;3.30;;;15.50;99.90;;;;;;4994145;28;20519;-62
2022/07/03 01:54:05;;;;;;;4.35;3.22;;;15.30;99.90;;;;;;5010228;28;20132;-62
2022/07/03 01:56:33;;;;;;;5.55;3.08;;;15.20;99.90;;;;;;5016616;28;20050;-62
2022/07/03 01:59:02;;;;;;;3.83;3.42;;;15.50;99.90;;;;;;5027770;28;20037;-62
2022/07/03 02:01:37;;;;;;;5.72;3.15;;;15.20;99.90;;;;;;5001654;28;20046;-62
2022/07/03 02:04:32;;;;;;;4.60;3.00;;;15.00;99.90;;;;;;4995490;28;20034;-62
2022/07/03 02:07:02;;;;;;;7.53;3.10;;;15.20;99.90;;;;;;4995711;28;20042;-62
2022/07/03 02:09:48;;;;;;;4.18;3.25;;;15.20;99.90;;;;;;5021850;28;20045;-62
2022/07/03 02:12:19;;;;;;;3.63;3.08;;;15.20;99.90;;;;;;4994086;28;20165;-62
2022/07/03 02:15:02;;;;;;;5.88;3.20;;;15.20;99.90;;;;;;4994051;28;20092;-62
2022/07/03 02:17:35;;;;;;;4.63;3.30;;;15.30;99.90;;;;;;5022673;28;20037;-62
2022/07/03 02:20:04;;;;;;;5.97;3.35;;;15.40;99.90;;;;;;4994479;28;20038;-63
2022/07/03 02:22:46;;;;;;;8.48;3.72;;;15.30;99.90;;;;;;5022252;28;20055;-63
2022/07/03 02:25:12;;;;;;;8.82;4.80;;;15.30;99.90;;;;;;4986195;28;20064;-63
2022/07/03 02:27:55;;;;;;;5.57;2.88;;;15.10;99.90;;;;;;5013816;28;20488;-64
2022/07/03 02:30:23;;;;;;;5.07;3.22;;;15.30;99.90;;;;;;5001882;28;20128;-63
2022/07/03 02:32:51;;;;;;;5.43;3.80;;;15.20;99.90;;;;;;5000845;28;20400;-63
2022/07/03 02:35:27;;;;;;;4.53;4.13;;;15.00;99.90;;;;;;5000402;28;20048;-63
2022/07/03 02:38:15;;;;;;;5.10;3.30;;;15.10;99.90;;;;;;5026898;28;20037;-63
2022/07/03 02:41:12;;;;;;;4.35;3.05;;;14.90;99.90;;;;;;5018130;28;20057;-64
2022/07/03 02:43:57;;;;;;;5.30;3.78;;;15.20;99.90;;;;;;5010430;28;20050;-63
2022/07/03 02:46:49;;;;;;;4.00;3.60;;;15.20;99.90;;;;;;5014604;28;20044;-63
2022/07/03 02:49:41;;;;;;;4.28;3.25;;;15.00;99.90;;;;;;5013652;28;20041;-63
2022/07/03 02:52:10;;;;;;;6.82;3.63;;;14.80;99.90;;;;;;5014659;28;20042;-63
2022/07/03 02:54:46;;;;;;;5.18;3.88;;;14.70;99.90;;;;;;5007046;28;20492;-63
2022/07/03 02:57:15;;;;;;;5.18;3.10;;;14.60;99.90;;;;;;5009866;28;20088;-63
2022/07/03 02:59:54;;;;;;;4.88;3.38;;;14.70;99.90;;;;;;5013337;28;20502;-63
2022/07/03 03:02:37;;;;;;;5.72;3.50;;;14.80;99.90;;;;;;5013064;28;20034;-63
2022/07/03 03:05:05;;;;;;;3.95;2.97;;;14.70;99.90;;;;;;5023320;28;20037;-63
2022/07/03 03:08:03;;;;;;;3.50;3.20;;;14.50;99.90;;;;;;5020197;28;20089;-63
2022/07/03 03:10:29;;;;;;;4.18;3.30;;;14.80;99.90;;;;;;4992743;28;20081;-63
2022/07/03 03:13:19;;;;;;;7.28;3.60;;;14.70;99.90;;;;;;5014501;28;20076;-63
2022/07/03 03:16:01;;;;;;;4.60;4.07;;;14.90;99.90;;;;;;5014265;28;20161;-63
2022/07/03 03:18:29;;;;;;;5.30;3.28;;;14.70;99.90;;;;;;5009541;28;20045;-63
2022/07/03 03:20:59;;;;;;;5.82;3.42;;;14.70;99.90;;;;;;5007728;28;20056;-63
2022/07/03 03:23:50;;;;;;;4.30;3.60;;;14.70;99.90;;;;;;5002507;28;20488;-63
2022/07/03 03:26:21;;;;;;;3.80;2.72;;;14.80;99.90;;;;;;5004762;28;20129;-63
2022/07/03 03:28:46;;;;;;;4.13;3.55;;;14.70;99.90;;;;;;5034004;28;20037;-62
2022/07/03 03:31:13;;;;;;;4.28;3.13;;;15.00;99.90;;;;;;5003862;28;20057;-62
2022/07/03 03:33:44;;;;;;;5.20;3.78;;;14.60;99.90;;;;;;4992976;28;20104;-62
2022/07/03 03:36:11;;;;;;;3.67;2.85;;;14.60;99.90;;;;;;4994104;28;20046;-62
2022/07/03 03:38:38;;;;;;;7.55;3.53;;;14.40;99.90;;;;;;5002883;28;20068;-62
2022/07/03 03:41:04;;;;;;;3.80;3.50;;;14.50;99.90;;;;;;5010947;28;20042;-62
2022/07/03 03:43:31;;;;;;;4.10;3.67;;;14.70;99.90;;;;;;4992344;28;20084;-62
2022/07/03 03:45:57;;;;;;;6.05;3.17;;;14.70;99.90;;;;;;5000867;28;20068;-62
2022/07/03 03:48:23;;;;;;;5.15;3.15;;;14.70;99.90;;;;;;5010213;28;20077;-62
2022/07/03 03:50:49;;;;;;;4.97;3.47;;;14.70;99.90;;;;;;5005288;28;20438;-62
2022/07/03 03:53:17;;;;;;;5.03;2.72;;;14.70;99.90;;;;;;5008183;28;20050;-62
2022/07/03 03:56:00;;;;;;;4.40;3.10;;;14.70;99.90;;;;;;5020065;28;20042;-62
2022/07/03 03:58:27;;;;;;;4.05;3.25;;;14.90;99.90;;;;;;4992470;28;20489;-62
2022/07/03 04:00:55;;;;;;;6.13;2.92;;;14.60;99.90;;;;;;4992156;28;20125;-63
2022/07/03 04:03:21;;;;;;;3.15;2.85;;;14.30;99.90;;;;;;4993093;28;20045;-62
2022/07/03 04:05:46;;;;;;;5.13;3.40;;;14.40;99.90;;;;;;5008338;28;20488;-62
2022/07/03 04:08:13;;;;;;;5.20;3.55;;;14.30;99.90;;;;;;4992365;28;20034;-62
2022/07/03 04:10:38;;;;;;;5.70;3.58;;;14.50;99.90;;;;;;4992745;28;20404;-63
2022/07/03 04:13:04;;;;;;;4.40;3.97;;;14.30;99.90;;;;;;4984286;28;20042;-62
2022/07/03 04:15:30;;;;;;;5.05;2.90;;;14.50;99.90;;;;;;5026078;28;20129;-62
2022/07/03 04:17:56;;;;;;;6.70;3.72;;;14.40;99.90;;;;;;4998603;28;20038;-62
2022/07/03 04:20:21;;;;;;;9.07;4.10;;;14.60;99.90;;;;;;5001768;28;20097;-62
2022/07/03 04:22:48;;;;;;;4.93;3.55;;;14.20;99.90;;;;;;5019806;28;20149;-62
2022/07/03 04:25:13;;;;;;;4.43;3.20;;;14.50;99.90;;;;;;4992525;28;20050;-62
2022/07/03 04:27:39;;;;;;;7.10;4.00;;;14.60;99.90;;;;;;4995872;28;20042;-62
2022/07/03 04:30:09;;;;;;;10.75;4.00;;;14.30;99.90;;;;;;4999355;28;20125;-62
2022/07/03 04:32:35;;;;;;;4.75;3.05;;;14.30;99.90;;;;;;4995323;28;20034;-63
2022/07/03 04:35:01;;;;;;;4.32;2.95;;;14.30;99.90;;;;;;5013123;28;20029;-63
2022/07/03 04:37:27;;;;;;;3.55;3.25;;;14.50;99.90;;;;;;5005049;28;20049;-63
2022/07/03 04:39:52;;;;;;;3.83;2.78;;;14.50;99.90;;;;;;5008346;28;20076;-63
2022/07/03 04:42:18;;;;;;;6.20;3.30;;;14.60;99.90;;;;;;5003412;28;20160;-63
2022/07/03 04:44:43;;;;;;;4.53;2.75;;;14.50;99.90;;;;;;5004125;28;20046;-63
2022/07/03 04:47:10;;;;;;;3.00;2.80;;;;;;;;;;5003306;28;20117;-62
2022/07/03 04:49:35;;;;;;;4.13;2.58;;;14.50;99.90;;;;;;5005773;28;20468;-63
2022/07/03 04:52:01;;;;;;;3.85;2.58;;;14.50;99.90;;;;;;5008198;28;20041;-63
2022/07/03 04:54:26;;;;;;;6.93;3.88;;;14.80;99.90;;;;;;5025614;28;20037;-63
2022/07/03 04:56:52;;;;;;;3.88;2.80;;;14.90;99.90;;;;;;5024693;28;20123;-62
2022/07/03 04:59:17;;;;;;;4.28;3.22;;;15.00;99.90;;;;;;4985014;28;20054;-62
2022/07/03 05:01:43;;;;;;;4.72;3.00;;;15.00;99.90;;;;;;4984201;28;20046;-62
2022/07/03 05:04:08;;;;;;;6.10;3.00;;;13.30;99.90;;;;;;5020394;28;20046;-62
2022/07/03 05:06:34;;;;;;;3.58;2.90;;;15.70;99.90;;;;;;5025145;28;20050;-62
2022/07/03 05:09:00;;;;;;;4.18;2.47;;;16.10;99.90;;;;;;5022663;28;20045;-62
2022/07/03 05:11:25;;;;;;;7.00;2.63;;;16.10;99.90;;;;;;5012056;28;20053;-62
2022/07/03 05:13:51;;;;;;;3.42;2.50;;;16.70;99.90;;;;;;5022800;28;20115;-62
2022/07/03 05:16:16;;;;;;;3.45;2.50;;;17.20;99.90;;;;;;4984007;28;20050;-62
2022/07/03 05:18:42;;;;;;;4.60;2.13;;;17.50;99.90;;;;;;5008157;28;20081;-62
2022/07/03 05:21:07;;;;;;;4.03;2.40;;;17.80;99.90;;;;;;5010906;28;20041;-62
2022/07/03 05:23:33;;;;;;;5.38;2.67;;;17.60;99.90;;;;;;5024983;28;20053;-62
2022/07/03 05:25:59;;;;;;;6.15;2.53;;;17.70;99.90;;;;;;4996714;28;20237;-62
2022/07/03 05:28:25;;;;;;;3.40;2.97;;;17.40;99.90;;;;;;4996478;28;20076;-62
2022/07/03 05:30:51;;;;;;;4.05;3.25;;;17.40;99.90;;;;;;5017062;28;20064;-62
2022/07/03 05:33:17;;;;;;;5.72;3.25;;;17.10;99.90;;;;;;5014523;28;20038;-62
2022/07/03 05:35:42;;;;;;;3.13;2.83;;;16.90;99.90;;;;;;5003014;28;20564;-62
2022/07/03 05:38:08;;;;;;;4.10;3.15;;;17.00;99.90;;;;;;5016562;28;20042;-62
2022/07/03 05:40:33;;;;;;;3.40;3.10;;;16.80;99.90;;;;;;4989391;28;20085;-62
2022/07/03 05:42:59;;;;;;;7.43;3.78;;;16.80;99.90;;;;;;5005464;28;20046;-62
2022/07/03 05:45:24;;;;;;;4.60;3.13;;;17.00;99.90;;;;;;5008928;28;20050;-62
2022/07/03 05:47:50;;;;;;;4.05;3.17;;;16.50;99.90;;;;;;5008640;28;20081;-62
2022/07/03 05:50:15;;;;;;;4.80;4.00;;;17.90;99.90;;;;;;5017806;28;20046;-63
2022/07/03 05:52:41;;;;;;;4.80;3.40;;;16.90;99.90;;;;;;5009300;28;20060;-62
2022/07/03 05:55:07;;;;;;;8.02;3.55;;;17.00;99.90;;;;;;5009407;28;20033;-62
2022/07/03 05:57:32;;;;;;;4.03;3.00;;;17.60;99.90;;;;;;5002509;28;20046;-62
2022/07/03 05:59:58;;;;;;;5.80;3.22;;;17.40;99.90;;;;;;5003325;28;20034;-62
2022/07/03 06:02:23;;;;;;;4.55;3.35;;;17.60;99.90;;;;;;5005886;28;20308;-62
2022/07/03 06:04:49;;;;;;;4.90;2.83;;;17.90;99.90;;;;;;5007232;28;20112;-62
2022/07/03 06:07:16;;;;;;;5.35;2.85;;;18.00;99.90;;;;;;5011369;28;20046;-62
2022/07/03 06:09:43;;;;;;;4.05;2.80;;;18.00;99.90;;;;;;5013628;28;20053;-62
2022/07/03 06:12:09;;;;;;;5.30;2.97;;;18.30;99.90;;;;;;5012913;28;20737;-62
2022/07/03 06:14:34;;;;;;;2.97;1.77;;;18.60;99.90;;;;;;5006872;28;20050;-62
2022/07/03 06:17:00;;;;;;;8.13;2.97;;;18.40;99.90;;;;;;5007762;28;20026;-62
2022/07/03 06:19:25;;;;;;;3.90;1.77;;;18.30;99.90;;;;;;5010241;28;20392;-62
2022/07/03 06:21:51;;;;;;;4.72;2.13;;;18.60;99.90;;;;;;5010092;28;20120;-62
2022/07/03 06:24:16;;;;;;;5.13;2.20;;;18.70;99.90;;;;;;5011889;28;20073;-61
2022/07/03 06:26:42;;;;;;;5.47;2.03;;;18.80;99.90;;;;;;5010737;28;20050;-62
2022/07/03 06:29:08;;;;;;;3.38;1.45;;;18.80;99.90;;;;;;5010647;28;20046;-62
2022/07/03 06:31:33;;;;;;;4.60;1.70;;;18.90;99.90;;;;;;5012541;28;20065;-62
2022/07/03 06:33:59;;;;;;;2.95;1.67;;;19.40;99.90;;;;;;5013102;28;20041;-62
2022/07/03 06:36:24;;;;;;;3.65;1.65;;;19.30;99.90;;;;;;5011328;28;21223;-62
2022/07/03 06:38:50;;;;;;;5.82;2.08;;;19.30;99.90;;;;;;5010461;28;20050;-62
2022/07/03 06:41:15;;;;;;;3.85;2.20;;;19.50;99.90;;;;;;5002930;28;20052;-62
2022/07/03 06:43:41;;;;;;;4.93;2.22;;;19.40;99.90;;;;;;5013698;28;20038;-62
2022/07/03 06:46:06;;;;;;;5.43;1.98;;;19.30;99.90;;;;;;5006442;28;20042;-62
2022/07/03 06:48:32;;;;;;;5.45;2.40;;;19.50;99.90;;;;;;5012074;28;20128;-62
2022/07/03 06:50:58;;;;;;;5.65;2.65;;;19.10;99.90;;;;;;5002281;28;20527;-63
2022/07/03 06:53:23;;;;;;;3.58;2.45;;;18.90;99.90;;;;;;5026730;28;20144;-63
2022/07/03 06:55:49;;;;;;;2.80;2.10;;;19.00;99.90;;;;;;5012225;28;20037;-62
2022/07/03 06:58:14;;;;;;;3.67;2.30;;;19.20;99.90;;;;;;5027423;28;20042;-62
2022/07/03 07:00:40;;;;;;;5.15;2.53;;;19.30;99.90;;;;;;5013361;28;20034;-62
2022/07/03 07:03:06;;;;;;;5.28;2.20;;;19.20;99.90;;;;;;5013763;28;20033;-62
2022/07/03 07:05:31;;;;;;;2.83;1.60;;;19.20;99.90;;;;;;5013233;28;20042;-62
2022/07/03 07:07:57;;;;;;;3.08;0.85;;;19.30;99.90;;;;;;5013837;28;20407;-62
2022/07/03 07:10:22;;;;;;;8.15;1.15;;;19.60;99.90;;;;;;5013333;28;20041;-62
2022/07/03 07:12:49;;;;;;;4.63;0.95;;;19.70;99.90;;;;;;5013059;28;20038;-62
2022/07/03 07:15:14;;;;;;;3.17;1.00;;;19.80;99.90;;;;;;5015477;28;20038;-62
2022/07/03 07:17:40;;;;;;;4.55;1.10;;;19.60;99.90;;;;;;5013246;28;20137;-62
2022/07/03 07:20:07;;;;;;;2.60;1.10;;;19.90;99.90;;;;;;5013566;28;20555;-62
2022/07/03 07:22:32;;;;;;;5.13;1.30;;;19.90;99.90;;;;;;5013441;28;20072;-62
2022/07/03 07:24:58;;;;;;;5.60;1.08;;;20.10;99.90;;;;;;5013478;28;20135;-62
2022/07/03 07:27:23;;;;;;;4.10;0.82;;;19.90;99.90;;;;;;5013047;28;20038;-62
2022/07/03 07:29:49;;;;;;;3.03;0.90;;;20.00;99.90;;;;;;5011488;28;20038;-62
2022/07/03 07:32:14;;;;;;;2.50;0.80;;;20.00;99.90;;;;;;4995396;28;20046;-63
2022/07/03 07:34:40;;;;;;;3.83;0.85;;;20.10;99.90;;;;;;5013203;28;20503;-62
2022/07/03 07:37:05;;;;;;;5.15;0.60;;;20.20;99.90;;;;;;5012136;28;20037;-62
2022/07/03 07:39:31;;;;;;;7.32;0.85;;;20.30;99.90;;;;;;5007997;28;20050;-62
2022/07/03 07:41:57;;;;;;;1.88;0.73;;;20.10;99.90;;;;;;5012682;28;20038;-62
2022/07/03 07:44:22;;;;;;;5.82;0.90;;;20.10;99.90;;;;;;5011670;28;20092;-62
2022/07/03 07:46:49;;;;;;;5.28;0.98;;;20.20;99.90;;;;;;5014396;28;20042;-62
2022/07/03 07:49:16;;;;;;;2.13;0.75;;;19.90;99.90;;;;;;5017585;28;20042;-62
2022/07/03 07:51:41;;;;;;;2.67;0.50;;;20.20;99.90;;;;;;4993382;28;20453;-63
2022/07/03 07:54:07;;;;;;;3.47;0.85;;;20.50;99.90;;;;;;4999040;28;20080;-62
2022/07/03 07:56:32;;;;;;;4.40;1.05;;;20.40;99.90;;;;;;5001200;28;20042;-62
2022/07/03 07:58:58;;;;;;;2.50;0.68;;;20.10;99.90;;;;;;4991705;28;20065;-62
2022/07/03 08:06:51;;;;;;;3.60;0.57;;;20.40;99.90;;;;;;4993092;28;20050;-62
2022/07/03 08:09:17;;;;;;;1.02;0.40;;;20.30;99.90;;;;;;4999111;28;20067;-62
2022/07/03 08:11:43;;;;;;;4.20;0.45;;;20.40;99.90;;;;;;5011636;28;20033;-63
2022/07/03 08:14:10;;;;;;;6.28;0.60;;;20.40;99.90;;;;;;5012677;28;20037;-63
2022/07/03 08:16:35;;;;;;;2.03;0.63;;;20.30;99.90;;;;;;5023626;28;20056;-63
2022/07/03 08:19:01;;;;;;;2.22;0.60;;;20.50;99.90;;;;;;5014678;28;20113;-63
2022/07/03 08:21:27;;;;;;;1.73;0.40;;;20.50;99.90;;;;;;5014417;28;20038;-63
2022/07/03 08:23:53;;;;;;;3.25;0.55;;;20.50;99.90;;;;;;5014152;28;20046;-63
2022/07/03 08:26:18;;;;;;;3.13;0.80;;;20.70;99.90;;;;;;5014615;28;20121;-64
2022/07/03 08:28:44;;;;;;;2.38;0.32;;;20.70;99.90;;;;;;5018923;28;20408;-65
2022/07/03 08:31:09;;;;;;;0.95;0.43;;;20.40;99.90;;;;;;5007876;28;20049;-64
2022/07/03 08:33:35;;;;;;;3.60;0.30;;;20.50;99.90;;;;;;5012779;28;20034;-64
2022/07/03 08:36:01;;;;;;;1.17;0.75;;;20.70;99.90;;;;;;5010817;28;20045;-64
2022/07/03 08:38:31;;;;;;;1.45;0.45;;;20.50;99.90;;;;;;5018731;28;20200;-64
2022/07/03 08:41:01;;;;;;;4.75;0.60;;;20.70;99.90;;;;;;5026791;28;20384;-63
2022/07/03 08:43:27;;;;;;;1.35;0.47;;;20.70;99.90;;;;;;5008455;28;20147;-64
2022/07/03 08:45:54;;;;;;;2.45;0.45;;;20.60;99.90;;;;;;5012253;28;20496;-64
2022/07/03 08:48:22;;;;;;;3.25;0.40;;;20.50;99.90;;;;;;5013943;28;20109;-63
2022/07/03 08:50:49;;;;;;;2.33;0.50;;;21.00;99.90;;;;;;5011312;28;20101;-64
2022/07/03 08:53:16;;;;;;;2.72;0.77;;;20.80;99.90;;;;;;5001832;28;20049;-64
2022/07/03 08:55:41;;;;;;;3.65;0.50;;;20.90;99.90;;;;;;5012948;28;20049;-62
2022/07/03 08:58:10;;;;;;;1.85;0.50;;;20.90;99.90;;;;;;5010564;28;20037;-63
2022/07/03 09:00:37;;;;;;;3.20;0.50;;;20.80;99.90;;;;;;5008907;28;20054;-63
2022/07/03 09:03:04;;;;;;;2.45;0.73;;;20.90;99.90;;;;;;5010466;28;20041;-63
2022/07/03 09:05:30;;;;;;;2.50;0.50;;;21.20;99.90;;;;;;5025302;28;20045;-63
2022/07/03 09:07:59;;;;;;;1.42;0.80;;;21.00;99.90;;;;;;5013790;28;20072;-64
2022/07/03 09:10:24;;;;;;;2.40;0.60;;;21.10;99.90;;;;;;5016884;28;20085;-64
2022/07/03 09:12:50;;;;;;;2.10;0.50;;;21.10;99.90;;;;;;5013801;28;20092;-64
2022/07/03 09:15:16;;;;;;;2.60;0.52;;;21.50;99.90;;;;;;5019896;28;20072;-63
2022/07/03 09:18:05;;;;;;;1.95;0.50;;;21.40;99.90;;;;;;5018923;28;20033;-63
2022/07/03 09:20:36;;;;;;;3.70;0.90;;;21.60;99.90;;;;;;5014938;28;20038;-64
2022/07/03 09:23:15;;;;;;;2.03;0.50;;;21.30;99.90;;;;;;5014047;28;20057;-64
2022/07/03 09:26:02;;;;;;;2.22;0.63;;;21.60;99.90;;;;;;5018986;28;20038;-64
2022/07/03 09:28:53;;;;;;;2.90;0.43;;;21.40;99.90;;;;;;5018165;28;20053;-64
2022/07/03 09:31:21;;;;;;;2.42;0.60;;;21.40;99.90;;;;;;5017600;28;20092;-64
2022/07/03 09:34:03;;;;;;;1.73;0.40;;;21.50;99.90;;;;;;5018878;28;20615;-64
2022/07/03 09:36:43;;;;;;;3.60;0.70;;;21.60;99.90;;;;;;5016823;28;20042;-64
2022/07/03 09:39:24;;;;;;;5.00;0.50;;;21.60;99.90;;;;;;5018155;28;20516;-64
2022/07/03 09:41:54;;;;;;;1.92;0.93;;;21.80;99.90;;;;;;5016657;28;20054;-64
2022/07/03 09:44:33;;;;;;;3.45;0.68;;;21.80;99.90;;;;;;5018496;28;20399;-64
2022/07/03 09:47:20;;;;;;;2.47;0.40;;;22.10;99.90;;;;;;4993844;28;20044;-64
2022/07/03 09:49:59;;;;;;;3.80;0.80;;;22.30;99.90;;;;;;5015161;28;20057;-64
2022/07/03 09:52:46;;;;;;;3.30;0.98;;;22.10;99.90;;;;;;5014943;28;20077;-64
2022/07/03 09:55:11;;;;;;;3.78;0.70;;;22.40;99.90;;;;;;5016434;28;20404;-64
2022/07/03 09:57:40;;;;;;;2.45;0.77;;;22.50;99.90;;;;;;5016075;28;20030;-64
2022/07/03 10:00:11;;;;;;;4.30;0.90;;;22.60;99.90;;;;;;5016034;28;20045;-64
2022/07/03 10:02:51;;;;;;;3.95;0.70;;;22.30;99.90;;;;;;5016882;28;20049;-64
2022/07/03 10:05:16;;;;;;;4.05;0.88;;;22.50;99.90;;;;;;5016815;28;20050;-64
2022/07/03 10:08:05;;;;;;;3.47;0.50;;;21.90;99.90;;;;;;5016991;28;20041;-64
2022/07/03 10:10:37;;;;;;;1.15;0.52;;;22.30;99.90;;;;;;5017116;28;20484;-64
2022/07/03 10:13:03;;;;;;;2.17;0.57;;;22.00;99.90;;;;;;5004469;28;20081;-64
2022/07/03 10:15:30;;;;;;;1.75;0.43;;;22.20;99.90;;;;;;5017194;28;20033;-64
2022/07/03 10:17:59;;;;;;;1.58;0.57;;;22.30;99.90;;;;;;5015476;28;20034;-64
2022/07/03 10:20:44;;;;;;;4.00;0.60;;;22.40;99.90;;;;;;5014902;28;20432;-64
2022/07/03 10:23:10;;;;;;;4.32;0.63;;;22.50;99.90;;;;;;5014945;28;20496;-64
2022/07/03 10:25:40;;;;;;;3.15;0.63;;;22.60;99.90;;;;;;5018292;28;20048;-64
2022/07/03 10:28:06;;;;;;;5.30;0.80;;;23.30;99.90;;;;;;5016458;28;20057;-64
2022/07/03 10:30:32;;;;;;;7.82;1.30;;;22.60;99.90;;;;;;5015117;28;20053;-64
2022/07/03 10:32:58;;;;;;;6.53;1.25;;;22.80;99.90;;;;;;5015567;28;20064;-64
2022/07/03 10:35:25;;;;;;;3.28;0.73;;;23.00;99.90;;;;;;5016016;28;20548;-64
2022/07/03 10:38:00;;;;;;;3.70;0.93;;;22.50;99.90;;;;;;5014306;28;20052;-64
2022/07/03 10:46:29;;;;;;;3.67;1.40;;;23.10;99.90;;;;;;5015246;28;20046;-64
2022/07/03 10:49:11;;;;;;;5.90;1.13;;;24.10;99.90;;;;;;5010883;28;20046;-64
2022/07/03 10:51:45;;;;;;;4.25;1.30;;;22.90;99.90;;;;;;5007646;28;20042;-64
2022/07/03 10:54:26;;;;;;;5.32;1.15;;;22.70;99.90;;;;;;5022057;28;20097;-64
2022/07/03 10:56:58;;;;;;;3.00;0.60;;;23.10;99.90;;;;;;5011420;28;20038;-64
2022/07/03 10:59:43;;;;;;;4.28;1.40;;;23.20;99.90;;;;;;5012327;28;20073;-64
2022/07/03 11:02:38;;;;;;;3.50;0.80;;;23.10;99.90;;;;;;5009435;28;20042;-64
2022/07/03 11:05:10;;;;;;;4.43;0.93;;;22.80;99.90;;;;;;5017241;28;21108;-64
2022/07/03 11:07:44;;;;;;;6.55;1.00;;;22.80;99.90;;;;;;5017477;28;20279;-64
2022/07/03 11:10:10;;;;;;;4.57;1.37;;;22.50;99.90;;;;;;5013314;28;20033;-64
2022/07/03 11:12:57;;;;;;;5.00;1.00;;;22.70;99.90;;;;;;5013863;28;20100;-64
2022/07/03 11:15:33;;;;;;;3.63;0.73;;;22.60;99.90;;;;;;5014102;28;20125;-64
2022/07/03 11:18:11;;;;;;;3.05;0.77;;;22.60;99.90;;;;;;5009211;28;20037;-63
2022/07/03 11:20:42;;;;;;;4.25;0.90;;;22.80;99.90;;;;;;5007710;28;20605;-64
2022/07/03 11:23:29;;;;;;;3.70;0.80;;;22.70;99.90;;;;;;5012667;28;20041;-64
2022/07/03 11:26:20;;;;;;;4.90;0.90;;;22.70;99.90;;;;;;5030276;28;20050;-64
2022/07/03 11:28:45;;;;;;;2.38;0.50;;;22.40;99.90;;;;;;5010078;28;20123;-64
2022/07/03 11:31:13;;;;;;;4.40;0.65;;;22.70;99.90;;;;;;5016058;28;20105;-64
2022/07/03 11:33:42;;;;;;;4.90;0.50;;;23.50;99.90;;;;;;5027981;28;20044;-64
2022/07/03 11:36:16;;;;;;;3.13;0.80;;;22.80;99.90;;;;;;5014872;28;20118;-64
2022/07/03 11:39:00;;;;;;;;;;;22.70;99.90;;;;;;5024225;28;20488;-64
2022/07/03 11:41:35;;;;;;;5.65;1.15;;;22.00;99.90;;;;;;5018597;28;19917;-64
2022/07/03 11:44:05;;;;;;;5.90;0.50;;;22.70;99.90;;;;;;5011364;28;20038;-64
2022/07/03 11:46:37;;;;;;;2.85;0.52;;;23.10;99.90;;;;;;5010472;28;20057;-64
2022/07/03 11:49:06;;;;;;;3.05;0.55;;;23.10;99.90;;;;;;5011220;28;20034;-64
2022/07/03 11:51:33;;;;;;;4.55;0.50;;;23.30;99.90;;;;;;5011663;28;20042;-64
2022/07/03 11:53:58;;;;;;;1.42;0.40;;;23.20;99.90;;;;;;5015035;28;20073;-64
2022/07/03 11:56:24;;;;;;;6.47;0.95;;;23.30;99.90;;;;;;5015632;28;20050;-64
2022/07/03 11:58:52;;;;;;;3.53;0.50;;;23.10;99.90;;;;;;5010456;28;20042;-64
2022/07/03 12:01:27;;;;;;;3.92;0.57;;;22.90;99.90;;;;;;5019193;28;20117;-64
2022/07/03 12:04:18;;;;;;;7.03;0.70;;;23.20;99.90;;;;;;5018065;28;20050;-64
2022/07/03 12:06:48;;;;;;;5.43;1.08;;;23.20;99.90;;;;;;5017249;28;20054;-64
2022/07/03 12:09:22;;;;;;;3.67;0.65;;;24.70;99.90;;;;;;5017430;28;20554;-64
2022/07/03 12:11:56;;;;;;;5.45;0.68;;;23.10;99.90;;;;;;5012589;28;20052;-63
2022/07/03 12:14:44;;;;;;;5.63;0.93;;;23.20;99.90;;;;;;5010627;28;20037;-64
2022/07/03 12:17:30;;;;;;;1.63;0.45;;;23.30;99.90;;;;;;5008154;28;20376;-63
2022/07/03 12:19:58;;;;;;;3.72;0.50;;;23.40;99.90;;;;;;5009810;28;20530;-62
2022/07/03 12:22:33;;;;;;;3.17;0.50;;;23.10;99.90;;;;;;5009804;28;20554;-63
2022/07/03 12:25:03;;;;;;;2.75;0.50;;;23.00;99.90;;;;;;5009627;28;20042;-63
2022/07/03 12:27:32;;;;;;;2.78;0.55;;;23.20;99.90;;;;;;5013307;28;20137;-63
2022/07/03 12:29:58;;;;;;;1.95;0.40;;;23.20;99.90;;;;;;5008709;28;20071;-62
2022/07/03 12:32:24;;;;;;;2.05;0.55;;;23.10;99.90;;;;;;5004250;28;20042;-63
2022/07/03 12:34:50;;;;;;;2.70;0.50;;;22.80;99.90;;;;;;5006039;28;20546;-63
2022/07/03 12:37:16;;;;;;;4.10;0.50;;;22.80;99.90;;;;;;5007779;28;20073;-63
2022/07/03 12:39:43;;;;;;;2.17;0.40;;;22.60;99.90;;;;;;5006356;28;20052;-63
2022/07/03 12:42:20;;;;;;;3.78;0.70;;;22.70;99.90;;;;;;5005842;28;20046;-63
2022/07/03 12:44:59;;;;;;;2.30;0.40;;;22.40;99.90;;;;;;5005901;28;20056;-63
2022/07/03 12:47:26;;;;;;;4.57;0.40;;;22.50;99.90;;;;;;5009986;28;20038;-63
2022/07/03 12:50:00;;;;;;;3.00;0.50;;;22.40;99.90;;;;;;5011514;28;20045;-62
2022/07/03 12:52:26;;;;;;;3.03;1.00;;;22.70;99.90;;;;;;5010311;28;20048;-62
2022/07/03 12:54:52;;;;;;;2.05;0.40;;;22.70;99.90;;;;;;5008809;28;20038;-62
2022/07/03 13:00:19;;;;;;;7.22;0.50;;;22.80;99.90;;;;;;5010181;28;20462;-64
2022/07/03 13:02:49;;;;;;;3.65;0.90;;;22.70;99.90;;;;;;5008558;28;20518;-62
2022/07/03 13:05:24;;;;;;;2.03;0.40;;;22.80;99.90;;;;;;5009520;28;20577;-62
2022/07/03 13:07:53;;;;;;;1.30;0.40;;;22.70;99.90;;;;;;5001350;28;20507;-63
2022/07/03 13:10:21;;;;;;;2.70;0.30;;;22.70;99.90;;;;;;5009674;28;20169;-62
2022/07/03 13:12:59;;;;;;;2.03;0.40;;;22.40;99.90;;;;;;5009642;28;20046;-63
2022/07/03 13:15:27;;;;;;;3.25;0.60;;;22.60;99.90;;;;;;5008792;28;20054;-63
2022/07/03 13:17:55;;;;;;;2.38;0.30;;;22.20;99.90;;;;;;5010728;28;20073;-63